Nissho Maru No7 — JH3472 — position and weather

sailwx.info

Track history (hours):
 
Tides and Currents Weather Stations Pressure Air Temp Water Temp Dewpoint Dewpoint Depression Visibility Wind Speed Wind Dir Waves Ship Positions

Nissho Maru No7

Last reported at 2015-May-22 20:22 UTC. Time now 2015-May-22 20:39 UTC.
Position N 34°57' E 140°04'.

Length 73 m; draft 4.8 m.

MMSI: 431200355.

Date/timePositionNaut miles runAvg speedWind from/ knotsBaromVisibWave heightAir tempDewpointWater temp
2015-May-22 20:22N 34°57' E 140°04'910.3
2015-May-22 19:32N 35°02' E 140°12'62 8.3
2015-May-22 12:07N 35°57' E 140°44'4 7.1
2015-May-22 11:33N 35°55' E 140°40'0 0.0
2015-May-21 22:30N 35°56' E 140°40'0 0.0
2015-May-21 21:30N 35°56' E 140°40'0 0.0
2015-May-21 20:24N 35°56' E 140°40'0 0.0
2015-May-21 19:30N 35°56' E 140°40'0 0.0
2015-May-21 18:33N 35°56' E 140°40'0 0.0
2015-May-21 17:30N 35°56' E 140°40'0 0.1
2015-May-21 16:33N 35°56' E 140°40'6 5.5
2015-May-21 15:33N 35°55' E 140°47'1410.6
2015-May-21 14:16N 35°43' E 140°54'911.3
2015-May-21 13:30N 35°35' E 140°48'1112.0
2015-May-21 12:33N 35°27' E 140°39'1412.4
2015-May-21 11:28N 35°16' E 140°29'2512.3
2015-May-21 09:26N 34°59' E 140°07'18 9.3
2015-May-21 07:30N 34°56' E 139°45'8 8.9
2015-May-21 06:33N 35°04' E 139°44'1110.6
2015-May-21 05:33N 35°15' E 139°46'1010.0
2015-May-21 04:33N 35°24' E 139°43'1111.5
2015-May-21 03:33N 35°31' E 139°54'1010.3
2015-May-21 02:33N 35°37' E 140°05'0 0.2
2015-May-21 01:22N 35°37' E 140°05'0 0.0
2015-May-21 00:10N 35°37' E 140°05'0 0.1
2015-May-20 23:33N 35°37' E 140°05'9 9.0
2015-May-20 22:33N 35°31' E 139°56'1010.2
2015-May-20 21:33N 35°25' E 139°47'9 9.1
2015-May-20 20:33N 35°15' E 139°47'9 9.4
2015-May-20 19:33N 35°06' E 139°44'9 9.3
2015-May-20 18:33N 35°00' E 139°35'233 8.8
2015-May-19 16:11N 34°01' E 135°02'711.0
2015-May-19 15:33N 34°07' E 135°03'6 5.8
2015-May-19 14:34N 34°10' E 135°09'0 0.0
2015-May-19 13:32N 34°10' E 135°09'0 0.0
2015-May-19 12:17N 34°10' E 135°09'0 0.1
2015-May-19 11:32N 34°10' E 135°09'0 0.0
2015-May-19 10:32N 34°10' E 135°09'0 0.1
2015-May-19 09:32N 34°10' E 135°09'0 0.0
2015-May-19 08:32N 34°10' E 135°09'0 0.0
2015-May-19 07:26N 34°10' E 135°09'0 0.0
2015-May-19 06:32N 34°10' E 135°09'0 0.1
2015-May-19 05:32N 34°10' E 135°09'0 0.0
2015-May-19 04:32N 34°10' E 135°09'0 0.0
2015-May-19 03:32N 34°10' E 135°09'0 0.0
2015-May-19 02:32N 34°10' E 135°09'0 0.1
2015-May-19 01:32N 34°10' E 135°09'0 0.0
2015-May-19 00:23N 34°10' E 135°09'0 0.1
2015-May-18 23:32N 34°10' E 135°09'0 0.1
2015-May-18 22:32N 34°10' E 135°09'0 0.1
2015-May-18 21:32N 34°10' E 135°09'0 0.1
2015-May-18 20:32N 34°10' E 135°09'0 0.0
2015-May-18 19:32N 34°10' E 135°09'0 0.0
2015-May-18 18:29N 34°10' E 135°09'0 0.0
2015-May-18 17:32N 34°10' E 135°09'0 0.0
2015-May-18 16:32N 34°10' E 135°09'0 0.0
2015-May-18 15:32N 34°10' E 135°09'0 0.1
2015-May-18 14:32N 34°10' E 135°09'0 0.0
2015-May-18 13:32N 34°10' E 135°09'0 0.3
2015-May-18 12:33N 34°10' E 135°09'11 8.9
2015-May-18 11:22N 34°17' E 134°59'6 7.3
2015-May-18 10:33N 34°23' E 135°00'9 9.1
2015-May-18 09:34N 34°32' E 135°02'8 5.5
2015-May-18 08:11N 34°35' E 134°54'  
2015-May-15 08:29N 34°39' E 134°51'1212.9
2015-May-15 07:33N 34°36' E 135°05'1311.6
2015-May-15 06:26N 34°23' E 135°02'1011.2
2015-May-15 05:33N 34°13' E 134°59'216 8.0
2015-May-14 02:30N 34°56' E 139°17'9 9.3
2015-May-14 01:32N 35°01' E 139°26'9 9.4
2015-May-14 00:32N 35°05' E 139°37'1010.0
2015-May-13 23:33N 35°12' E 139°46'1010.3
2015-May-13 22:33N 35°22' E 139°42'6 6.3
2015-May-13 21:33N 35°22' E 139°50'1 0.6
2015-May-13 20:10N 35°22' E 139°51'0 0.0
2015-May-13 19:25N 35°22' E 139°51'0 0.0
2015-May-13 18:22N 35°22' E 139°51'0 0.0
2015-May-13 17:31N 35°22' E 139°51'0 0.0
2015-May-13 16:28N 35°22' E 139°51'0 0.0
2015-May-13 15:25N 35°22' E 139°51'2 1.7
2015-May-13 14:32N 35°22' E 139°49'0 0.0
2015-May-13 13:32N 35°22' E 139°49'0 0.0
2015-May-13 12:32N 35°22' E 139°49'0 0.0
2015-May-13 11:33N 35°22' E 139°49'0 0.0
2015-May-13 10:33N 35°22' E 139°49'0 0.0
2015-May-13 09:33N 35°22' E 139°49'0 0.0
2015-May-13 08:33N 35°22' E 139°49'0 0.0
2015-May-13 07:33N 35°22' E 139°49'0 0.0
2015-May-13 06:32N 35°22' E 139°49'0 0.0
2015-May-13 05:34N 35°22' E 139°49'3 2.9
2015-May-13 04:33N 35°22' E 139°53'1 0.6
2015-May-13 03:31N 35°22' E 139°54'0 0.0
2015-May-13 02:31N 35°22' E 139°54'0 0.0
2015-May-13 01:25N 35°22' E 139°54'0 0.0
2015-May-13 00:22N 35°22' E 139°54'0 0.0
2015-May-12 23:31N 35°22' E 139°54'0 0.0
2015-May-12 22:25N 35°22' E 139°54'0 0.0
2015-May-12 21:28N 35°22' E 139°54'0 0.0
2015-May-12 20:25N 35°22' E 139°54'  
Track history (hours):
 
Tides and Currents Weather Stations Pressure Air Temp Water Temp Dewpoint Dewpoint Depression Visibility Wind Speed Wind Dir Waves Ship Positions

Nissho Maru No7

Last reported at 2015-May-22 20:22 UTC. Time now 2015-May-22 20:39 UTC.
Position N 34°57' E 140°04'.

Length 73 m; draft 4.8 m.

MMSI: 431200355.

Date/timePositionNaut miles runAvg speedWind from/ knotsBaromVisibWave heightAir tempDewpointWater temp
2015-May-22 20:22N 34°57' E 140°04'910.3
2015-May-22 19:32N 35°02' E 140°12'62 8.3
2015-May-22 12:07N 35°57' E 140°44'4 7.1
2015-May-22 11:33N 35°55' E 140°40'0 0.0
2015-May-21 22:30N 35°56' E 140°40'0 0.0
2015-May-21 21:30N 35°56' E 140°40'0 0.0
2015-May-21 20:24N 35°56' E 140°40'0 0.0
2015-May-21 19:30N 35°56' E 140°40'0 0.0
2015-May-21 18:33N 35°56' E 140°40'0 0.0
2015-May-21 17:30N 35°56' E 140°40'0 0.1
2015-May-21 16:33N 35°56' E 140°40'6 5.5
2015-May-21 15:33N 35°55' E 140°47'1410.6
2015-May-21 14:16N 35°43' E 140°54'911.3
2015-May-21 13:30N 35°35' E 140°48'1112.0
2015-May-21 12:33N 35°27' E 140°39'1412.4
2015-May-21 11:28N 35°16' E 140°29'2512.3
2015-May-21 09:26N 34°59' E 140°07'18 9.3
2015-May-21 07:30N 34°56' E 139°45'8 8.9
2015-May-21 06:33N 35°04' E 139°44'1110.6
2015-May-21 05:33N 35°15' E 139°46'1010.0
2015-May-21 04:33N 35°24' E 139°43'1111.5
2015-May-21 03:33N 35°31' E 139°54'1010.3
2015-May-21 02:33N 35°37' E 140°05'0 0.2
2015-May-21 01:22N 35°37' E 140°05'0 0.0
2015-May-21 00:10N 35°37' E 140°05'0 0.1
2015-May-20 23:33N 35°37' E 140°05'9 9.0
2015-May-20 22:33N 35°31' E 139°56'1010.2
2015-May-20 21:33N 35°25' E 139°47'9 9.1
2015-May-20 20:33N 35°15' E 139°47'9 9.4
2015-May-20 19:33N 35°06' E 139°44'9 9.3
2015-May-20 18:33N 35°00' E 139°35'233 8.8
2015-May-19 16:11N 34°01' E 135°02'711.0
2015-May-19 15:33N 34°07' E 135°03'6 5.8
2015-May-19 14:34N 34°10' E 135°09'0 0.0
2015-May-19 13:32N 34°10' E 135°09'0 0.0
2015-May-19 12:17N 34°10' E 135°09'0 0.1
2015-May-19 11:32N 34°10' E 135°09'0 0.0
2015-May-19 10:32N 34°10' E 135°09'0 0.1
2015-May-19 09:32N 34°10' E 135°09'0 0.0
2015-May-19 08:32N 34°10' E 135°09'0 0.0
2015-May-19 07:26N 34°10' E 135°09'0 0.0
2015-May-19 06:32N 34°10' E 135°09'0 0.1
2015-May-19 05:32N 34°10' E 135°09'0 0.0
2015-May-19 04:32N 34°10' E 135°09'0 0.0
2015-May-19 03:32N 34°10' E 135°09'0 0.0
2015-May-19 02:32N 34°10' E 135°09'0 0.1
2015-May-19 01:32N 34°10' E 135°09'0 0.0
2015-May-19 00:23N 34°10' E 135°09'0 0.1
2015-May-18 23:32N 34°10' E 135°09'0 0.1
2015-May-18 22:32N 34°10' E 135°09'0 0.1
2015-May-18 21:32N 34°10' E 135°09'0 0.1
2015-May-18 20:32N 34°10' E 135°09'0 0.0
2015-May-18 19:32N 34°10' E 135°09'0 0.0
2015-May-18 18:29N 34°10' E 135°09'0 0.0
2015-May-18 17:32N 34°10' E 135°09'0 0.0
2015-May-18 16:32N 34°10' E 135°09'0 0.0
2015-May-18 15:32N 34°10' E 135°09'0 0.1
2015-May-18 14:32N 34°10' E 135°09'0 0.0
2015-May-18 13:32N 34°10' E 135°09'0 0.3
2015-May-18 12:33N 34°10' E 135°09'11 8.9
2015-May-18 11:22N 34°17' E 134°59'6 7.3
2015-May-18 10:33N 34°23' E 135°00'9 9.1
2015-May-18 09:34N 34°32' E 135°02'8 5.5
2015-May-18 08:11N 34°35' E 134°54'  
2015-May-15 08:29N 34°39' E 134°51'1212.9
2015-May-15 07:33N 34°36' E 135°05'1311.6
2015-May-15 06:26N 34°23' E 135°02'1011.2
2015-May-15 05:33N 34°13' E 134°59'216 8.0
2015-May-14 02:30N 34°56' E 139°17'9 9.3
2015-May-14 01:32N 35°01' E 139°26'9 9.4
2015-May-14 00:32N 35°05' E 139°37'1010.0
2015-May-13 23:33N 35°12' E 139°46'1010.3
2015-May-13 22:33N 35°22' E 139°42'6 6.3
2015-May-13 21:33N 35°22' E 139°50'1 0.6
2015-May-13 20:10N 35°22' E 139°51'0 0.0
2015-May-13 19:25N 35°22' E 139°51'0 0.0
2015-May-13 18:22N 35°22' E 139°51'0 0.0
2015-May-13 17:31N 35°22' E 139°51'0 0.0
2015-May-13 16:28N 35°22' E 139°51'0 0.0
2015-May-13 15:25N 35°22' E 139°51'2 1.7
2015-May-13 14:32N 35°22' E 139°49'0 0.0
2015-May-13 13:32N 35°22' E 139°49'0 0.0
2015-May-13 12:32N 35°22' E 139°49'0 0.0
2015-May-13 11:33N 35°22' E 139°49'0 0.0
2015-May-13 10:33N 35°22' E 139°49'0 0.0
2015-May-13 09:33N 35°22' E 139°49'0 0.0
2015-May-13 08:33N 35°22' E 139°49'0 0.0
2015-May-13 07:33N 35°22' E 139°49'0 0.0
2015-May-13 06:32N 35°22' E 139°49'0 0.0
2015-May-13 05:34N 35°22' E 139°49'3 2.9
2015-May-13 04:33N 35°22' E 139°53'1 0.6
2015-May-13 03:31N 35°22' E 139°54'0 0.0
2015-May-13 02:31N 35°22' E 139°54'0 0.0
2015-May-13 01:25N 35°22' E 139°54'0 0.0
2015-May-13 00:22N 35°22' E 139°54'0 0.0
2015-May-12 23:31N 35°22' E 139°54'0 0.0
2015-May-12 22:25N 35°22' E 139°54'0 0.0
2015-May-12 21:28N 35°22' E 139°54'0 0.0
2015-May-12 20:25N 35°22' E 139°54'  

Dump ship's entire track history